Bondville, VT (05340)

6:22 PM EDT on October 01, 2016 (GMT -0400)
half way up Stratton Mountain | | Change Station

Elev 2550 ft 43.11 °N, 72.92 °W | Updated 7 seconds ago

Rain
Rain
45.8 °F
Feels Like 42 °F
N
8.0
Wind Variable Wind from East
Gusts 13.0 mph

Today
High -- | Low -- °F
--% Chance of Precip.
Yesterday
High -- | Low -- °F
Precip. -- in
Pressure 30.30 in
Visibility 10.0 miles
Clouds Overcast 2900 ft
Windchill 42 °F
Dew Point 46 °F
Humidity 100%
Rainfall 0.11 in
Snow Depth Not available.
6:49 AM 6:31 PM
New Moon, 1% visible
METAR KVSF 012154Z AUTO 08005KT 10SM OVC029 12/08 A3028 RMK AO2 SLP258 T01170078 TSNO
Pressure 30.30 in
Visibility 10.0 miles
Clouds Overcast 2900 ft
Windchill 42 °F
Dew Point 46 °F
Humidity 100%
Rainfall 0.11 in
Snow Depth Not available.
6:49 AM 6:31 PM
New Moon, 1% visible
METAR KVSF 012154Z AUTO 08005KT 10SM OVC029 12/08 A3028 RMK AO2 SLP258 T01170078 TSNO

10-Day Weather Forecast

Almanac

Astronomy

Oct. 01, 2016 Rise Set
Actual Time
Civil Twilight
Nautical Twilight
Astronomical Twilight
Moon
Length of Visible Light
Length of Day
Tomorrow will be .
, % of the Moon is Illuminated

Today's Extremes

State Highs State Lows

Community

WunderPhotos

Upload Photos

1,943,040 photos uploaded!

WunderBlog® & News

Nearby

Air Quality

  Air Quality AQ Index Pollutant
Not available.

Snow Depth

Station Depth Elevation

Earthquake Activity

City Distance Mag. Time & Date
Minimum magnitude displayed is 2.5.

Coastal Water Temperatures

Place Temperature

Stations

Nearby Weather Stations

Station Location Temp. Windchill Dew Point Humidity Wind Precip. Elev Updated Type
                   

Watches & Warnings

There are currently no watches in effect.